Terminal Aerodrome Forecast
Issued by NWS Missoula, MT

Current Version | Previous Version | Text Only | Print | Product List | Glossary On
Versions: 1 2 3 4 5 6 7 8 9 10 11 12 13 14 15 16 17 18
000
FTUS45 KMSO 272101 AAB
TAFBTM
TAF AMD
KBTM 272101Z 2721/2818 31012G20KT P6SM VCTS SCT050CB BKN120
     FM272300 30015G25KT P6SM VCSH SCT070 BKN100
     FM280300 VRB05KT P6SM SCT100=

USA.gov is the U.S. government's official web portal to all federal, state and local government web resources and services.